Terminal Aerodrome Forecast
Issued by NWS Sterling, VA

Home | Current Version | Previous Version | Text Only | Print | Product List | Glossary On
Versions: 1 2 3 4 5 6 7 8 9 10 11 12 13 14 15 16
000
FTUS41 KLWX 262330
TAFMRB
TAF
KMRB 262330Z 2700/2724 16008KT P6SM -SHRA OVC015
     FM270300 21006KT 4SM -SHRA BR BKN010 OVC025
     FM270600 28005KT 3SM BR BKN003 OVC100
     FM271100 29004KT 1 1/2SM BR FEW020 SCT250
     FM271200 28004KT P6SM FEW110 SCT250
     FM272000 22005KT P6SM SKC=

USA.gov is the U.S. government's official web portal to all federal, state and local government web resources and services.